sensor_id;sensor_type;location;lat;lon;timestamp;P1;durP1;ratioP1;P2;durP2;ratioP2
71353;SDS011;59393;51.652;4.864;2022-09-25T00:01:09;6.67;;;2.23;;
71353;SDS011;59393;51.652;4.864;2022-09-25T00:03:36;10.73;;;2.40;;
71353;SDS011;59393;51.652;4.864;2022-09-25T00:08:31;6.95;;;2.20;;
71353;SDS011;59393;51.652;4.864;2022-09-25T00:10:57;7.93;;;2.22;;
71353;SDS011;59393;51.652;4.864;2022-09-25T00:13:23;10.13;;;2.40;;
71353;SDS011;59393;51.652;4.864;2022-09-25T00:15:52;8.57;;;2.72;;
71353;SDS011;59393;51.652;4.864;2022-09-25T00:18:19;7.18;;;2.20;;
71353;SDS011;59393;51.652;4.864;2022-09-25T00:21:04;10.60;;;2.85;;
71353;SDS011;59393;51.652;4.864;2022-09-25T00:23:35;14.70;;;2.13;;
71353;SDS011;59393;51.652;4.864;2022-09-25T00:26:02;8.07;;;2.40;;
71353;SDS011;59393;51.652;4.864;2022-09-25T00:28:30;13.95;;;2.63;;
71353;SDS011;59393;51.652;4.864;2022-09-25T00:30:56;7.18;;;2.05;;
71353;SDS011;59393;51.652;4.864;2022-09-25T00:33:22;8.15;;;2.00;;
71353;SDS011;59393;51.652;4.864;2022-09-25T00:35:48;7.78;;;2.20;;
71353;SDS011;59393;51.652;4.864;2022-09-25T00:38:14;8.73;;;2.00;;
71353;SDS011;59393;51.652;4.864;2022-09-25T00:40:40;8.38;;;2.05;;
71353;SDS011;59393;51.652;4.864;2022-09-25T00:43:14;9.52;;;2.25;;
71353;SDS011;59393;51.652;4.864;2022-09-25T00:45:40;7.75;;;2.47;;
71353;SDS011;59393;51.652;4.864;2022-09-25T00:48:07;6.43;;;2.33;;
71353;SDS011;59393;51.652;4.864;2022-09-25T00:50:35;8.60;;;3.67;;
71353;SDS011;59393;51.652;4.864;2022-09-25T00:53:17;9.43;;;3.90;;
71353;SDS011;59393;51.652;4.864;2022-09-25T00:55:45;9.15;;;4.18;;
71353;SDS011;59393;51.652;4.864;2022-09-25T00:58:12;7.38;;;3.13;;
71353;SDS011;59393;51.652;4.864;2022-09-25T01:00:38;9.23;;;3.13;;
71353;SDS011;59393;51.652;4.864;2022-09-25T01:03:04;5.67;;;2.30;;
71353;SDS011;59393;51.652;4.864;2022-09-25T01:05:32;6.90;;;2.80;;
71353;SDS011;59393;51.652;4.864;2022-09-25T01:08:00;8.30;;;2.60;;
71353;SDS011;59393;51.652;4.864;2022-09-25T01:10:26;10.55;;;5.03;;
71353;SDS011;59393;51.652;4.864;2022-09-25T01:12:53;8.25;;;2.20;;
71353;SDS011;59393;51.652;4.864;2022-09-25T01:15:30;10.23;;;2.27;;
71353;SDS011;59393;51.652;4.864;2022-09-25T01:23:24;10.45;;;2.63;;
71353;SDS011;59393;51.652;4.864;2022-09-25T01:30:51;7.40;;;2.42;;
71353;SDS011;59393;51.652;4.864;2022-09-25T01:33:26;6.38;;;2.42;;
71353;SDS011;59393;51.652;4.864;2022-09-25T01:41:34;7.03;;;2.38;;
71353;SDS011;59393;51.652;4.864;2022-09-25T01:43:34;7.28;;;2.17;;
71353;SDS011;59393;51.652;4.864;2022-09-25T01:46:03;6.43;;;2.22;;
71353;SDS011;59393;51.652;4.864;2022-09-25T01:48:30;6.22;;;1.95;;
71353;SDS011;59393;51.652;4.864;2022-09-25T01:53:47;7.65;;;2.38;;
71353;SDS011;59393;51.652;4.864;2022-09-25T01:56:24;8.77;;;2.10;;
71353;SDS011;59393;51.652;4.864;2022-09-25T01:58:56;10.70;;;2.15;;
71353;SDS011;59393;51.652;4.864;2022-09-25T02:01:25;7.97;;;2.55;;
71353;SDS011;59393;51.652;4.864;2022-09-25T02:04:04;7.63;;;2.30;;
71353;SDS011;59393;51.652;4.864;2022-09-25T02:06:32;4.82;;;1.88;;
71353;SDS011;59393;51.652;4.864;2022-09-25T02:09:00;9.32;;;2.47;;
71353;SDS011;59393;51.652;4.864;2022-09-25T02:11:29;6.50;;;2.17;;
71353;SDS011;59393;51.652;4.864;2022-09-25T02:13:57;6.20;;;2.33;;
71353;SDS011;59393;51.652;4.864;2022-09-25T02:16:29;7.97;;;2.10;;
71353;SDS011;59393;51.652;4.864;2022-09-25T02:18:58;7.28;;;2.20;;
71353;SDS011;59393;51.652;4.864;2022-09-25T02:24:38;7.60;;;2.03;;
71353;SDS011;59393;51.652;4.864;2022-09-25T02:27:08;6.88;;;3.25;;
71353;SDS011;59393;51.652;4.864;2022-09-25T02:29:34;10.17;;;2.00;;
71353;SDS011;59393;51.652;4.864;2022-09-25T02:32:19;4.90;;;1.95;;
71353;SDS011;59393;51.652;4.864;2022-09-25T02:34:47;8.23;;;2.20;;
71353;SDS011;59393;51.652;4.864;2022-09-25T02:37:13;6.32;;;2.00;;
71353;SDS011;59393;51.652;4.864;2022-09-25T02:39:40;13.50;;;2.72;;
71353;SDS011;59393;51.652;4.864;2022-09-25T02:50:02;7.55;;;2.05;;
71353;SDS011;59393;51.652;4.864;2022-09-25T02:55:11;6.60;;;1.90;;
71353;SDS011;59393;51.652;4.864;2022-09-25T02:57:40;6.05;;;2.00;;
71353;SDS011;59393;51.652;4.864;2022-09-25T03:00:09;8.63;;;2.10;;
71353;SDS011;59393;51.652;4.864;2022-09-25T03:02:35;6.25;;;2.22;;
71353;SDS011;59393;51.652;4.864;2022-09-25T03:05:03;8.80;;;2.20;;
71353;SDS011;59393;51.652;4.864;2022-09-25T03:07:29;5.40;;;1.83;;
71353;SDS011;59393;51.652;4.864;2022-09-25T03:10:16;7.70;;;2.10;;
71353;SDS011;59393;51.652;4.864;2022-09-25T03:12:42;7.65;;;2.22;;
71353;SDS011;59393;51.652;4.864;2022-09-25T03:15:09;5.57;;;1.83;;
71353;SDS011;59393;51.652;4.864;2022-09-25T03:17:36;5.82;;;1.90;;
71353;SDS011;59393;51.652;4.864;2022-09-25T03:20:03;7.07;;;1.80;;
71353;SDS011;59393;51.652;4.864;2022-09-25T03:22:29;5.00;;;1.90;;
71353;SDS011;59393;51.652;4.864;2022-09-25T03:24:55;4.80;;;2.03;;
71353;SDS011;59393;51.652;4.864;2022-09-25T03:27:21;7.50;;;1.75;;
71353;SDS011;59393;51.652;4.864;2022-09-25T03:29:52;4.93;;;1.98;;
71353;SDS011;59393;51.652;4.864;2022-09-25T03:32:19;8.17;;;1.90;;
71353;SDS011;59393;51.652;4.864;2022-09-25T03:34:45;5.03;;;1.92;;
71353;SDS011;59393;51.652;4.864;2022-09-25T03:37:11;6.93;;;1.73;;
71353;SDS011;59393;51.652;4.864;2022-09-25T03:39:37;4.85;;;2.08;;
71353;SDS011;59393;51.652;4.864;2022-09-25T03:42:03;8.00;;;1.63;;
71353;SDS011;59393;51.652;4.864;2022-09-25T03:44:29;9.38;;;2.10;;
71353;SDS011;59393;51.652;4.864;2022-09-25T03:46:55;5.65;;;1.70;;
71353;SDS011;59393;51.652;4.864;2022-09-25T03:49:21;6.93;;;2.08;;
71353;SDS011;59393;51.652;4.864;2022-09-25T03:51:47;5.70;;;1.70;;
71353;SDS011;59393;51.652;4.864;2022-09-25T03:54:13;6.10;;;2.00;;
71353;SDS011;59393;51.652;4.864;2022-09-25T03:56:39;9.25;;;1.73;;
71353;SDS011;59393;51.652;4.864;2022-09-25T03:59:05;7.88;;;2.03;;
71353;SDS011;59393;51.652;4.864;2022-09-25T04:01:31;6.95;;;2.40;;
71353;SDS011;59393;51.652;4.864;2022-09-25T04:03:58;7.72;;;2.28;;
71353;SDS011;59393;51.652;4.864;2022-09-25T04:06:27;10.13;;;2.65;;
71353;SDS011;59393;51.652;4.864;2022-09-25T04:08:53;6.40;;;2.17;;
71353;SDS011;59393;51.652;4.864;2022-09-25T04:11:21;12.63;;;3.13;;
71353;SDS011;59393;51.652;4.864;2022-09-25T04:13:48;9.50;;;2.40;;
71353;SDS011;59393;51.652;4.864;2022-09-25T04:16:14;7.78;;;2.30;;
71353;SDS011;59393;51.652;4.864;2022-09-25T04:18:40;6.33;;;2.47;;
71353;SDS011;59393;51.652;4.864;2022-09-25T04:21:07;8.30;;;2.80;;
71353;SDS011;59393;51.652;4.864;2022-09-25T04:23:33;9.85;;;2.70;;
71353;SDS011;59393;51.652;4.864;2022-09-25T04:26:00;9.02;;;2.25;;
71353;SDS011;59393;51.652;4.864;2022-09-25T04:28:26;7.88;;;2.53;;
71353;SDS011;59393;51.652;4.864;2022-09-25T04:30:55;11.60;;;2.70;;
71353;SDS011;59393;51.652;4.864;2022-09-25T04:33:21;9.75;;;2.75;;
71353;SDS011;59393;51.652;4.864;2022-09-25T04:36:06;8.25;;;2.55;;
71353;SDS011;59393;51.652;4.864;2022-09-25T04:38:32;7.57;;;2.78;;
71353;SDS011;59393;51.652;4.864;2022-09-25T04:40:59;9.73;;;2.70;;
71353;SDS011;59393;51.652;4.864;2022-09-25T04:43:29;10.80;;;2.87;;
71353;SDS011;59393;51.652;4.864;2022-09-25T04:45:59;5.75;;;2.30;;
71353;SDS011;59393;51.652;4.864;2022-09-25T04:48:25;7.03;;;2.65;;
71353;SDS011;59393;51.652;4.864;2022-09-25T04:50:51;8.23;;;2.70;;
71353;SDS011;59393;51.652;4.864;2022-09-25T04:53:17;6.82;;;2.42;;
71353;SDS011;59393;51.652;4.864;2022-09-25T04:55:43;7.23;;;3.07;;
71353;SDS011;59393;51.652;4.864;2022-09-25T04:58:11;6.00;;;2.20;;
71353;SDS011;59393;51.652;4.864;2022-09-25T05:00:37;5.95;;;2.33;;
71353;SDS011;59393;51.652;4.864;2022-09-25T05:03:04;6.35;;;2.58;;
71353;SDS011;59393;51.652;4.864;2022-09-25T05:05:30;7.10;;;2.33;;
71353;SDS011;59393;51.652;4.864;2022-09-25T05:08:00;5.23;;;2.00;;
71353;SDS011;59393;51.652;4.864;2022-09-25T05:10:27;5.43;;;2.10;;
71353;SDS011;59393;51.652;4.864;2022-09-25T05:12:58;7.80;;;2.40;;
71353;SDS011;59393;51.652;4.864;2022-09-25T05:15:24;6.47;;;2.28;;
71353;SDS011;59393;51.652;4.864;2022-09-25T05:17:57;5.75;;;2.13;;
71353;SDS011;59393;51.652;4.864;2022-09-25T05:20:24;7.80;;;2.33;;
71353;SDS011;59393;51.652;4.864;2022-09-25T05:22:53;6.70;;;2.00;;
71353;SDS011;59393;51.652;4.864;2022-09-25T05:25:19;8.82;;;2.42;;
71353;SDS011;59393;51.652;4.864;2022-09-25T05:27:47;5.10;;;2.10;;
71353;SDS011;59393;51.652;4.864;2022-09-25T05:30:14;7.15;;;2.10;;
71353;SDS011;59393;51.652;4.864;2022-09-25T05:32:46;5.50;;;2.10;;
71353;SDS011;59393;51.652;4.864;2022-09-25T05:35:13;6.55;;;2.38;;
71353;SDS011;59393;51.652;4.864;2022-09-25T05:37:39;7.43;;;2.28;;
71353;SDS011;59393;51.652;4.864;2022-09-25T05:40:05;7.03;;;2.25;;
71353;SDS011;59393;51.652;4.864;2022-09-25T05:42:31;4.95;;;1.98;;
71353;SDS011;59393;51.652;4.864;2022-09-25T05:44:59;7.23;;;2.10;;
71353;SDS011;59393;51.652;4.864;2022-09-25T05:47:27;6.82;;;2.60;;
71353;SDS011;59393;51.652;4.864;2022-09-25T05:49:53;11.30;;;2.55;;
71353;SDS011;59393;51.652;4.864;2022-09-25T05:52:19;5.60;;;2.35;;
71353;SDS011;59393;51.652;4.864;2022-09-25T05:54:45;7.68;;;2.30;;
71353;SDS011;59393;51.652;4.864;2022-09-25T05:57:11;7.23;;;2.57;;
71353;SDS011;59393;51.652;4.864;2022-09-25T05:59:37;9.48;;;2.90;;
71353;SDS011;59393;51.652;4.864;2022-09-25T06:02:03;7.82;;;2.70;;
71353;SDS011;59393;51.652;4.864;2022-09-25T06:04:29;10.57;;;2.78;;
71353;SDS011;59393;51.652;4.864;2022-09-25T06:06:55;8.13;;;2.87;;
71353;SDS011;59393;51.652;4.864;2022-09-25T06:09:23;7.73;;;3.03;;
71353;SDS011;59393;51.652;4.864;2022-09-25T06:11:49;7.43;;;3.17;;
71353;SDS011;59393;51.652;4.864;2022-09-25T06:14:17;6.55;;;2.70;;
71353;SDS011;59393;51.652;4.864;2022-09-25T06:16:45;7.32;;;2.92;;
71353;SDS011;59393;51.652;4.864;2022-09-25T06:19:14;11.23;;;2.50;;
71353;SDS011;59393;51.652;4.864;2022-09-25T06:21:41;9.10;;;2.83;;
71353;SDS011;59393;51.652;4.864;2022-09-25T06:24:07;9.40;;;3.00;;
71353;SDS011;59393;51.652;4.864;2022-09-25T06:26:34;9.40;;;3.10;;
71353;SDS011;59393;51.652;4.864;2022-09-25T06:29:02;6.45;;;2.63;;
71353;SDS011;59393;51.652;4.864;2022-09-25T06:31:28;6.00;;;2.80;;
71353;SDS011;59393;51.652;4.864;2022-09-25T06:33:54;7.45;;;2.60;;
71353;SDS011;59393;51.652;4.864;2022-09-25T06:36:20;9.20;;;2.90;;
71353;SDS011;59393;51.652;4.864;2022-09-25T06:38:46;6.88;;;3.10;;
71353;SDS011;59393;51.652;4.864;2022-09-25T06:41:13;7.23;;;2.73;;
71353;SDS011;59393;51.652;4.864;2022-09-25T06:43:39;7.63;;;2.75;;
71353;SDS011;59393;51.652;4.864;2022-09-25T06:46:05;6.43;;;2.75;;
71353;SDS011;59393;51.652;4.864;2022-09-25T06:48:31;9.85;;;3.15;;
71353;SDS011;59393;51.652;4.864;2022-09-25T06:50:57;12.00;;;3.60;;
71353;SDS011;59393;51.652;4.864;2022-09-25T06:53:24;7.27;;;3.00;;
71353;SDS011;59393;51.652;4.864;2022-09-25T06:55:50;7.47;;;3.33;;
71353;SDS011;59393;51.652;4.864;2022-09-25T06:58:18;8.40;;;3.38;;
71353;SDS011;59393;51.652;4.864;2022-09-25T07:00:45;7.88;;;3.10;;
71353;SDS011;59393;51.652;4.864;2022-09-25T07:03:11;8.85;;;3.40;;
71353;SDS011;59393;51.652;4.864;2022-09-25T07:05:57;13.27;;;3.13;;
71353;SDS011;59393;51.652;4.864;2022-09-25T07:08:24;8.43;;;3.17;;
71353;SDS011;59393;51.652;4.864;2022-09-25T07:10:51;9.95;;;2.90;;
71353;SDS011;59393;51.652;4.864;2022-09-25T07:13:17;9.45;;;3.13;;
71353;SDS011;59393;51.652;4.864;2022-09-25T07:18:41;7.60;;;3.00;;
71353;SDS011;59393;51.652;4.864;2022-09-25T07:21:09;11.32;;;2.90;;
71353;SDS011;59393;51.652;4.864;2022-09-25T07:23:35;10.70;;;2.55;;
71353;SDS011;59393;51.652;4.864;2022-09-25T07:26:03;11.85;;;2.85;;
71353;SDS011;59393;51.652;4.864;2022-09-25T07:28:30;12.40;;;2.78;;
71353;SDS011;59393;51.652;4.864;2022-09-25T07:30:56;8.10;;;2.87;;
71353;SDS011;59393;51.652;4.864;2022-09-25T07:33:22;12.38;;;3.10;;
71353;SDS011;59393;51.652;4.864;2022-09-25T07:35:49;10.68;;;3.25;;
71353;SDS011;59393;51.652;4.864;2022-09-25T07:38:15;16.00;;;2.72;;
71353;SDS011;59393;51.652;4.864;2022-09-25T07:40:42;8.60;;;2.60;;
71353;SDS011;59393;51.652;4.864;2022-09-25T07:43:08;8.13;;;2.30;;
71353;SDS011;59393;51.652;4.864;2022-09-25T07:45:34;10.05;;;2.83;;
71353;SDS011;59393;51.652;4.864;2022-09-25T07:48:01;13.57;;;3.05;;
71353;SDS011;59393;51.652;4.864;2022-09-25T07:50:28;12.88;;;2.40;;
71353;SDS011;59393;51.652;4.864;2022-09-25T07:52:55;6.95;;;1.85;;
71353;SDS011;59393;51.652;4.864;2022-09-25T07:55:21;7.30;;;1.47;;
71353;SDS011;59393;51.652;4.864;2022-09-25T07:57:47;8.77;;;1.50;;
71353;SDS011;59393;51.652;4.864;2022-09-25T08:00:14;8.40;;;1.27;;
71353;SDS011;59393;51.652;4.864;2022-09-25T08:02:41;5.60;;;1.52;;
71353;SDS011;59393;51.652;4.864;2022-09-25T08:05:07;10.18;;;2.22;;
71353;SDS011;59393;51.652;4.864;2022-09-25T08:07:34;10.57;;;2.40;;
71353;SDS011;59393;51.652;4.864;2022-09-25T08:10:00;10.63;;;2.30;;
71353;SDS011;59393;51.652;4.864;2022-09-25T08:12:26;6.28;;;2.08;;
71353;SDS011;59393;51.652;4.864;2022-09-25T08:14:52;6.63;;;2.10;;
71353;SDS011;59393;51.652;4.864;2022-09-25T08:17:18;5.95;;;2.00;;
71353;SDS011;59393;51.652;4.864;2022-09-25T08:19:46;9.63;;;1.90;;
71353;SDS011;59393;51.652;4.864;2022-09-25T08:22:12;9.20;;;2.17;;
71353;SDS011;59393;51.652;4.864;2022-09-25T08:24:38;7.32;;;1.65;;
71353;SDS011;59393;51.652;4.864;2022-09-25T08:27:04;7.60;;;1.30;;
71353;SDS011;59393;51.652;4.864;2022-09-25T08:29:33;7.28;;;1.40;;
71353;SDS011;59393;51.652;4.864;2022-09-25T08:31:59;8.20;;;1.40;;
71353;SDS011;59393;51.652;4.864;2022-09-25T08:34:25;6.65;;;0.90;;
71353;SDS011;59393;51.652;4.864;2022-09-25T08:36:51;2.92;;;0.90;;
71353;SDS011;59393;51.652;4.864;2022-09-25T08:39:18;7.50;;;0.98;;
71353;SDS011;59393;51.652;4.864;2022-09-25T08:41:48;4.47;;;1.00;;
71353;SDS011;59393;51.652;4.864;2022-09-25T08:46:53;5.32;;;0.90;;
71353;SDS011;59393;51.652;4.864;2022-09-25T08:52:49;2.53;;;0.80;;
71353;SDS011;59393;51.652;4.864;2022-09-25T08:57:46;1.90;;;0.67;;
71353;SDS011;59393;51.652;4.864;2022-09-25T09:00:19;7.22;;;1.40;;
71353;SDS011;59393;51.652;4.864;2022-09-25T09:02:53;5.10;;;1.25;;
71353;SDS011;59393;51.652;4.864;2022-09-25T09:05:29;6.43;;;0.90;;
71353;SDS011;59393;51.652;4.864;2022-09-25T09:08:00;4.15;;;1.08;;
71353;SDS011;59393;51.652;4.864;2022-09-25T09:10:38;5.10;;;0.97;;
71353;SDS011;59393;51.652;4.864;2022-09-25T09:13:10;5.78;;;0.90;;
71353;SDS011;59393;51.652;4.864;2022-09-25T09:15:41;4.25;;;1.00;;
71353;SDS011;59393;51.652;4.864;2022-09-25T09:18:21;7.10;;;1.38;;
71353;SDS011;59393;51.652;4.864;2022-09-25T09:23:20;8.00;;;0.97;;
71353;SDS011;59393;51.652;4.864;2022-09-25T09:26:00;6.35;;;1.10;;
71353;SDS011;59393;51.652;4.864;2022-09-25T09:31:04;5.25;;;0.80;;
71353;SDS011;59393;51.652;4.864;2022-09-25T09:33:40;7.78;;;1.20;;
71353;SDS011;59393;51.652;4.864;2022-09-25T09:49:38;10.53;;;1.57;;
71353;SDS011;59393;51.652;4.864;2022-09-25T09:52:09;5.75;;;0.95;;
71353;SDS011;59393;51.652;4.864;2022-09-25T09:57:29;7.15;;;1.20;;
71353;SDS011;59393;51.652;4.864;2022-09-25T10:00:05;5.65;;;0.90;;
71353;SDS011;59393;51.652;4.864;2022-09-25T10:03:24;3.97;;;1.20;;
71353;SDS011;59393;51.652;4.864;2022-09-25T10:05:31;3.47;;;0.88;;
71353;SDS011;59393;51.652;4.864;2022-09-25T10:07:57;5.03;;;1.27;;
71353;SDS011;59393;51.652;4.864;2022-09-25T10:10:28;2.47;;;0.90;;
71353;SDS011;59393;51.652;4.864;2022-09-25T10:12:56;5.00;;;1.20;;
71353;SDS011;59393;51.652;4.864;2022-09-25T10:15:53;5.17;;;1.10;;
71353;SDS011;59393;51.652;4.864;2022-09-25T10:18:19;3.30;;;1.15;;
71353;SDS011;59393;51.652;4.864;2022-09-25T10:21:06;5.95;;;1.23;;
71353;SDS011;59393;51.652;4.864;2022-09-25T10:23:36;7.50;;;1.30;;
71353;SDS011;59393;51.652;4.864;2022-09-25T10:26:05;7.20;;;1.60;;
71353;SDS011;59393;51.652;4.864;2022-09-25T10:28:47;5.57;;;1.17;;
71353;SDS011;59393;51.652;4.864;2022-09-25T10:31:13;6.35;;;1.20;;
71353;SDS011;59393;51.652;4.864;2022-09-25T10:33:40;4.03;;;1.23;;
71353;SDS011;59393;51.652;4.864;2022-09-25T10:36:06;5.15;;;1.00;;
71353;SDS011;59393;51.652;4.864;2022-09-25T10:41:04;6.40;;;1.47;;
71353;SDS011;59393;51.652;4.864;2022-09-25T10:43:31;5.03;;;1.10;;
71353;SDS011;59393;51.652;4.864;2022-09-25T10:46:08;4.30;;;1.00;;
71353;SDS011;59393;51.652;4.864;2022-09-25T10:48:36;6.45;;;0.88;;
71353;SDS011;59393;51.652;4.864;2022-09-25T10:51:22;3.83;;;0.88;;
71353;SDS011;59393;51.652;4.864;2022-09-25T10:53:53;4.13;;;0.83;;
71353;SDS011;59393;51.652;4.864;2022-09-25T10:56:29;4.07;;;0.85;;
71353;SDS011;59393;51.652;4.864;2022-09-25T10:58:59;6.00;;;0.90;;
71353;SDS011;59393;51.652;4.864;2022-09-25T11:01:37;4.82;;;1.02;;
71353;SDS011;59393;51.652;4.864;2022-09-25T11:04:15;3.13;;;0.85;;
71353;SDS011;59393;51.652;4.864;2022-09-25T11:06:43;4.37;;;0.73;;
71353;SDS011;59393;51.652;4.864;2022-09-25T11:09:14;4.72;;;0.93;;
71353;SDS011;59393;51.652;4.864;2022-09-25T11:11:41;3.40;;;0.85;;
71353;SDS011;59393;51.652;4.864;2022-09-25T11:16:50;3.78;;;0.90;;
71353;SDS011;59393;51.652;4.864;2022-09-25T11:19:34;5.03;;;0.90;;
71353;SDS011;59393;51.652;4.864;2022-09-25T11:22:15;2.95;;;0.70;;
71353;SDS011;59393;51.652;4.864;2022-09-25T11:29:45;2.67;;;0.75;;
71353;SDS011;59393;51.652;4.864;2022-09-25T11:32:28;2.67;;;0.50;;
71353;SDS011;59393;51.652;4.864;2022-09-25T11:40:28;3.63;;;0.70;;
71353;SDS011;59393;51.652;4.864;2022-09-25T11:43:18;2.17;;;0.57;;
71353;SDS011;59393;51.652;4.864;2022-09-25T11:45:59;3.20;;;0.60;;
71353;SDS011;59393;51.652;4.864;2022-09-25T11:48:42;1.33;;;0.52;;
71353;SDS011;59393;51.652;4.864;2022-09-25T12:24:18;3.17;;;0.90;;
71353;SDS011;59393;51.652;4.864;2022-09-25T12:39:51;3.30;;;0.70;;
71353;SDS011;59393;51.652;4.864;2022-09-25T12:45:02;3.90;;;0.80;;
71353;SDS011;59393;51.652;4.864;2022-09-25T12:47:42;3.80;;;0.80;;
71353;SDS011;59393;51.652;4.864;2022-09-25T12:50:15;2.47;;;0.70;;
71353;SDS011;59393;51.652;4.864;2022-09-25T12:55:31;3.67;;;0.80;;
71353;SDS011;59393;51.652;4.864;2022-09-25T13:00:30;3.13;;;0.70;;
71353;SDS011;59393;51.652;4.864;2022-09-25T13:05:30;6.88;;;1.27;;
71353;SDS011;59393;51.652;4.864;2022-09-25T13:13:20;6.72;;;0.93;;
71353;SDS011;59393;51.652;4.864;2022-09-25T13:15:52;5.00;;;0.90;;
71353;SDS011;59393;51.652;4.864;2022-09-25T13:18:20;3.00;;;0.90;;
71353;SDS011;59393;51.652;4.864;2022-09-25T13:20:47;3.78;;;0.90;;
71353;SDS011;59393;51.652;4.864;2022-09-25T13:23:15;3.30;;;0.60;;
71353;SDS011;59393;51.652;4.864;2022-09-25T13:25:47;1.65;;;0.65;;
71353;SDS011;59393;51.652;4.864;2022-09-25T13:28:22;2.67;;;0.90;;
71353;SDS011;59393;51.652;4.864;2022-09-25T13:30:57;2.90;;;0.95;;
71353;SDS011;59393;51.652;4.864;2022-09-25T13:33:24;5.35;;;1.00;;
71353;SDS011;59393;51.652;4.864;2022-09-25T13:36:00;1.00;;;0.60;;
71353;SDS011;59393;51.652;4.864;2022-09-25T13:38:30;2.65;;;0.65;;
71353;SDS011;59393;51.652;4.864;2022-09-25T13:41:15;2.47;;;0.93;;
71353;SDS011;59393;51.652;4.864;2022-09-25T13:43:41;2.15;;;0.90;;
71353;SDS011;59393;51.652;4.864;2022-09-25T13:48:34;2.65;;;0.70;;
71353;SDS011;59393;51.652;4.864;2022-09-25T13:51:24;2.60;;;1.00;;
71353;SDS011;59393;51.652;4.864;2022-09-25T13:53:57;3.37;;;0.90;;
71353;SDS011;59393;51.652;4.864;2022-09-25T13:56:45;2.42;;;0.63;;
71353;SDS011;59393;51.652;4.864;2022-09-25T14:06:38;2.20;;;0.80;;
71353;SDS011;59393;51.652;4.864;2022-09-25T14:09:10;2.97;;;0.80;;
71353;SDS011;59393;51.652;4.864;2022-09-25T14:11:37;3.67;;;0.82;;
71353;SDS011;59393;51.652;4.864;2022-09-25T14:14:04;3.88;;;0.70;;
71353;SDS011;59393;51.652;4.864;2022-09-25T14:16:42;5.85;;;1.08;;
71353;SDS011;59393;51.652;4.864;2022-09-25T14:19:13;2.27;;;0.70;;
71353;SDS011;59393;51.652;4.864;2022-09-25T14:21:42;2.35;;;0.70;;
71353;SDS011;59393;51.652;4.864;2022-09-25T14:24:23;2.28;;;0.60;;
71353;SDS011;59393;51.652;4.864;2022-09-25T14:26:52;2.90;;;0.73;;
71353;SDS011;59393;51.652;4.864;2022-09-25T14:29:23;2.65;;;0.88;;
71353;SDS011;59393;51.652;4.864;2022-09-25T14:34:37;2.50;;;0.82;;
71353;SDS011;59393;51.652;4.864;2022-09-25T14:39:36;2.35;;;0.63;;
71353;SDS011;59393;51.652;4.864;2022-09-25T14:47:16;3.50;;;0.88;;
71353;SDS011;59393;51.652;4.864;2022-09-25T14:49:44;3.35;;;0.70;;
71353;SDS011;59393;51.652;4.864;2022-09-25T14:52:15;5.97;;;0.88;;
71353;SDS011;59393;51.652;4.864;2022-09-25T14:54:42;2.78;;;0.60;;
71353;SDS011;59393;51.652;4.864;2022-09-25T14:57:10;3.80;;;0.63;;
71353;SDS011;59393;51.652;4.864;2022-09-25T14:59:41;2.55;;;0.75;;
71353;SDS011;59393;51.652;4.864;2022-09-25T15:02:16;3.65;;;0.75;;
71353;SDS011;59393;51.652;4.864;2022-09-25T15:04:43;3.88;;;1.05;;
71353;SDS011;59393;51.652;4.864;2022-09-25T15:07:16;4.85;;;0.98;;
71353;SDS011;59393;51.652;4.864;2022-09-25T15:09:44;3.80;;;0.90;;
71353;SDS011;59393;51.652;4.864;2022-09-25T15:17:30;5.25;;;0.85;;
71353;SDS011;59393;51.652;4.864;2022-09-25T15:19:57;1.85;;;0.60;;
71353;SDS011;59393;51.652;4.864;2022-09-25T15:22:27;3.07;;;0.80;;
71353;SDS011;59393;51.652;4.864;2022-09-25T15:24:56;1.70;;;0.63;;
71353;SDS011;59393;51.652;4.864;2022-09-25T15:27:23;3.10;;;0.60;;
71353;SDS011;59393;51.652;4.864;2022-09-25T15:29:52;5.68;;;1.00;;
71353;SDS011;59393;51.652;4.864;2022-09-25T15:32:21;1.77;;;0.70;;
71353;SDS011;59393;51.652;4.864;2022-09-25T15:34:47;2.50;;;0.70;;
71353;SDS011;59393;51.652;4.864;2022-09-25T15:39:40;2.13;;;0.50;;
71353;SDS011;59393;51.652;4.864;2022-09-25T15:42:06;1.63;;;0.60;;
71353;SDS011;59393;51.652;4.864;2022-09-25T15:44:32;2.95;;;0.85;;
71353;SDS011;59393;51.652;4.864;2022-09-25T15:46:59;2.87;;;0.80;;
71353;SDS011;59393;51.652;4.864;2022-09-25T15:54:45;2.05;;;0.60;;
71353;SDS011;59393;51.652;4.864;2022-09-25T15:57:14;2.40;;;0.80;;
71353;SDS011;59393;51.652;4.864;2022-09-25T15:59:42;1.80;;;0.50;;
71353;SDS011;59393;51.652;4.864;2022-09-25T16:02:28;2.78;;;0.60;;
71353;SDS011;59393;51.652;4.864;2022-09-25T16:05:14;3.33;;;0.73;;
71353;SDS011;59393;51.652;4.864;2022-09-25T16:07:44;2.28;;;0.70;;
71353;SDS011;59393;51.652;4.864;2022-09-25T16:17:55;2.30;;;0.70;;
71353;SDS011;59393;51.652;4.864;2022-09-25T16:20:29;1.77;;;0.50;;
71353;SDS011;59393;51.652;4.864;2022-09-25T16:22:56;3.37;;;0.60;;
71353;SDS011;59393;51.652;4.864;2022-09-25T16:25:44;3.15;;;0.77;;
71353;SDS011;59393;51.652;4.864;2022-09-25T16:28:17;5.90;;;0.70;;
71353;SDS011;59393;51.652;4.864;2022-09-25T16:30:48;1.45;;;0.60;;
71353;SDS011;59393;51.652;4.864;2022-09-25T16:33:26;5.50;;;1.90;;
71353;SDS011;59393;51.652;4.864;2022-09-25T16:35:52;7.32;;;3.38;;
71353;SDS011;59393;51.652;4.864;2022-09-25T16:38:26;10.35;;;4.43;;
71353;SDS011;59393;51.652;4.864;2022-09-25T16:43:34;5.35;;;0.80;;
71353;SDS011;59393;51.652;4.864;2022-09-25T16:46:11;1.95;;;0.75;;
71353;SDS011;59393;51.652;4.864;2022-09-25T16:48:38;4.18;;;0.90;;
71353;SDS011;59393;51.652;4.864;2022-09-25T16:51:06;3.50;;;0.98;;
71353;SDS011;59393;51.652;4.864;2022-09-25T16:53:35;1.57;;;0.50;;
71353;SDS011;59393;51.652;4.864;2022-09-25T16:56:02;1.63;;;0.52;;
71353;SDS011;59393;51.652;4.864;2022-09-25T16:58:28;3.83;;;1.00;;
71353;SDS011;59393;51.652;4.864;2022-09-25T17:00:54;1.48;;;0.55;;
71353;SDS011;59393;51.652;4.864;2022-09-25T17:03:20;2.97;;;0.65;;
71353;SDS011;59393;51.652;4.864;2022-09-25T17:05:46;1.37;;;0.50;;
71353;SDS011;59393;51.652;4.864;2022-09-25T17:08:16;2.78;;;0.60;;
71353;SDS011;59393;51.652;4.864;2022-09-25T17:10:42;2.00;;;0.60;;
71353;SDS011;59393;51.652;4.864;2022-09-25T17:13:09;2.60;;;0.70;;
71353;SDS011;59393;51.652;4.864;2022-09-25T17:15:36;4.00;;;0.80;;
71353;SDS011;59393;51.652;4.864;2022-09-25T17:18:06;5.60;;;1.57;;
71353;SDS011;59393;51.652;4.864;2022-09-25T17:20:37;5.82;;;2.42;;
71353;SDS011;59393;51.652;4.864;2022-09-25T17:23:03;8.85;;;3.55;;
71353;SDS011;59393;51.652;4.864;2022-09-25T17:25:36;9.90;;;4.55;;
71353;SDS011;59393;51.652;4.864;2022-09-25T17:28:04;9.10;;;3.75;;
71353;SDS011;59393;51.652;4.864;2022-09-25T17:30:30;3.03;;;0.97;;
71353;SDS011;59393;51.652;4.864;2022-09-25T17:32:57;5.13;;;1.08;;
71353;SDS011;59393;51.652;4.864;2022-09-25T17:38:09;3.95;;;0.90;;
71353;SDS011;59393;51.652;4.864;2022-09-25T17:40:44;3.35;;;0.98;;
71353;SDS011;59393;51.652;4.864;2022-09-25T17:43:11;9.37;;;4.87;;
71353;SDS011;59393;51.652;4.864;2022-09-25T17:48:16;27.65;;;14.88;;
71353;SDS011;59393;51.652;4.864;2022-09-25T17:50:47;25.42;;;13.48;;
71353;SDS011;59393;51.652;4.864;2022-09-25T17:53:17;17.70;;;9.35;;
71353;SDS011;59393;51.652;4.864;2022-09-25T17:55:44;10.80;;;4.70;;
71353;SDS011;59393;51.652;4.864;2022-09-25T17:58:14;6.38;;;2.67;;
71353;SDS011;59393;51.652;4.864;2022-09-25T18:00:40;8.05;;;2.55;;
71353;SDS011;59393;51.652;4.864;2022-09-25T18:03:07;6.65;;;2.38;;
71353;SDS011;59393;51.652;4.864;2022-09-25T18:05:33;10.98;;;2.70;;
71353;SDS011;59393;51.652;4.864;2022-09-25T18:07:59;7.93;;;2.27;;
71353;SDS011;59393;51.652;4.864;2022-09-25T18:10:26;7.05;;;2.55;;
71353;SDS011;59393;51.652;4.864;2022-09-25T18:12:55;5.05;;;2.05;;